Time;durP1;ratioP1;P1;durP2;ratioP2;P2;SDS_P1;SDS_P2;PMS_P1;PMS_P2;Temp;Humidity;BMP_temperature;BMP_pressure;BME280_temperature;BME280_humidity;BME280_pressure;Samples;Min_cycle;Max_cycle;Signal;HPM_P1;HPM_P2
2022/01/28 06:48:16;;;;;;;4.45;1.25;;;;;;;;;;10600934;27;20432;-88
2022/01/28 06:53:17;;;;;;;3.55;1.15;;;;;;;;;;10582037;28;20027;-89
2022/01/28 06:58:18;;;;;;;6.03;1.50;;;;;;;;;;10578154;28;20038;-89
2022/01/28 07:03:19;;;;;;;3.75;0.90;;;;;;;;;;10578737;28;20393;-89
2022/01/28 07:08:23;;;;;;;6.68;1.70;;;;;;;;;;10577997;28;20034;-88
2022/01/28 07:13:24;;;;;;;4.47;1.38;;;;;;;;;;10579410;28;20028;-88
2022/01/28 07:18:25;;;;;;;4.03;1.45;;;;;;;;;;10578031;28;20470;-89
2022/01/28 07:23:26;;;;;;;;;;;;;;;;;;10577392;28;20131;-90
2022/01/28 07:28:27;;;;;;;4.85;2.40;;;;;;;;;;10577038;28;19904;-89
2022/01/28 07:33:28;;;;;;;;;;;;;;;;;;10578916;28;20501;-89
2022/01/28 07:38:28;;;;;;;4.50;1.63;;;;;;;;;;10578713;28;19910;-88
2022/01/28 07:43:30;;;;;;;;;;;;;;;;;;10578470;28;20081;-88
2022/01/28 07:48:31;;;;;;;3.65;1.27;;;;;;;;;;10592537;28;19923;-89
2022/01/28 07:53:32;;;;;;;6.47;1.95;;;;;;;;;;10585746;28;20032;-89
2022/01/28 07:58:33;;;;;;;;;;;;;;;;;;10600762;28;20036;-89
2022/01/28 08:03:34;;;;;;;5.53;1.55;;;;;;;;;;10555722;28;19908;-90
2022/01/28 08:08:35;;;;;;;5.60;1.75;;;;;;;;;;10575882;28;20504;-86
2022/01/28 08:13:36;;;;;;;;;;;;;;;;;;10550594;28;20147;-87
2022/01/28 08:18:37;;;;;;;11.23;3.30;;;;;;;;;;10557418;28;19904;-84
2022/01/28 08:23:38;;;;;;;;;;;;;;;;;;10561434;28;20020;-83
2022/01/28 08:28:41;;;;;;;6.35;2.88;;;;;;;;;;10570188;28;19967;-82
2022/01/28 08:33:42;;;;;;;8.52;2.90;;;;;;;;;;10564508;28;20036;-82
2022/01/28 08:38:44;;;;;;;;;;;;;;;;;;10557328;28;20126;-82
2022/01/28 08:43:45;;;;;;;8.82;2.10;;;;;;;;;;10570608;28;19954;-83
2022/01/28 08:48:47;;;;;;;;;;;;;;;;;;10562867;28;20040;-82
2022/01/28 08:53:54;;;;;;;8.90;2.60;;;;;;;;;;10570283;28;19922;-81
2022/01/28 08:58:55;;;;;;;8.30;2.38;;;;;;;;;;10557029;28;20051;-83
2022/01/28 09:04:03;;;;;;;8.60;3.28;;;;;;;;;;10562935;28;20040;-81
2022/01/28 09:09:50;;;;;;;8.13;3.35;;;;;;;;;;10559939;28;20040;-81
2022/01/28 09:14:57;;;;;;;9.90;3.15;;;;;;;;;;10604406;28;20035;-82
2022/01/28 09:20:02;;;;;;;9.13;2.85;;;;;;;;;;10656169;22;20043;-79
2022/01/28 09:25:03;;;;;;;7.75;2.47;;;;;;;;;;10652634;27;20019;-79
2022/01/28 09:30:05;;;;;;;8.77;2.78;;;;;;;;;;10617744;27;20465;-79
2022/01/28 09:35:06;;;;;;;8.38;2.30;;;;;;;;;;10593577;28;20032;-79
2022/01/28 09:40:08;;;;;;;7.68;2.10;;;;;;;;;;10598526;28;20062;-80
2022/01/28 09:45:09;;;;;;;8.80;2.35;;;;;;;;;;10590552;28;20076;-80
2022/01/28 09:50:10;;;;;;;9.80;2.50;;;;;;;;;;10585550;28;20401;-80
2022/01/28 09:55:12;;;;;;;;;;;;;;;;;;10586249;28;20032;-81
2022/01/28 10:00:14;;;;;;;8.75;2.90;;;;;;;;;;10586285;28;19904;-81
2022/01/28 10:05:18;;;;;;;7.32;2.50;;;;;;;;;;10602241;28;20039;-84
2022/01/28 10:10:19;;;;;;;6.07;2.40;;;;;;;;;;10583978;28;20036;-83
2022/01/28 10:15:29;;;;;;;9.70;2.70;;;;;;;;;;10585747;28;20055;-83
2022/01/28 10:20:31;;;;;;;9.43;2.88;;;;;;;;;;10584370;28;20118;-83
2022/01/28 10:25:37;;;;;;;10.57;2.45;;;;;;;;;;10607139;28;20024;-82
2022/01/28 10:30:39;;;;;;;9.63;2.80;;;;;;;;;;10586324;28;20038;-80
2022/01/28 10:35:48;;;;;;;6.25;2.20;;;;;;;;;;10594988;28;20037;-81
2022/01/28 10:41:08;;;;;;;7.97;3.33;;;;;;;;;;10598973;28;20073;-80
2022/01/28 10:46:09;;;;;;;9.25;2.80;;;;;;;;;;10597152;28;20118;-81
2022/01/28 10:51:10;;;;;;;9.40;3.33;;;;;;;;;;10592208;28;20039;-82
2022/01/28 10:56:11;;;;;;;;;;;;;;;;;;10588791;28;20054;-83
2022/01/28 11:01:13;;;;;;;8.60;2.92;;;;;;;;;;10609834;28;19965;-83
2022/01/28 11:06:16;;;;;;;9.52;2.70;;;;;;;;;;10588514;28;20449;-82
2022/01/28 11:11:17;;;;;;;6.68;2.55;;;;;;;;;;10588566;28;20095;-81
2022/01/28 11:16:18;;;;;;;10.07;2.95;;;;;;;;;;10590449;28;20076;-84
2022/01/28 11:21:23;;;;;;;;;;;;;;;;;;10592089;28;20084;-82
2022/01/28 11:26:42;;;;;;;5.43;2.45;;;;;;;;;;10583150;28;20404;-81
2022/01/28 11:31:45;;;;;;;9.30;2.50;;;;;;;;;;10603468;28;20090;-82
2022/01/28 11:36:46;;;;;;;7.32;2.47;;;;;;;;;;10584951;28;20073;-82
2022/01/28 11:42:07;;;;;;;10.18;2.75;;;;;;;;;;10587147;28;20480;-81
2022/01/28 11:47:08;;;;;;;;;;;;;;;;;;10588011;28;20035;-83
2022/01/28 11:52:36;;;;;;;8.57;2.42;;;;;;;;;;10590466;28;19911;-82
2022/01/28 11:57:49;;;;;;;6.15;1.92;;;;;;;;;;10587429;28;20032;-82
2022/01/28 12:02:51;;;;;;;4.57;1.95;;;;;;;;;;10586363;28;20049;-81
2022/01/28 12:07:54;;;;;;;5.97;2.00;;;;;;;;;;10604888;28;20020;-82
2022/01/28 12:13:00;;;;;;;7.88;2.53;;;;;;;;;;10582982;28;20119;-82
2022/01/28 12:18:05;;;;;;;8.20;2.38;;;;;;;;;;10584094;28;20031;-82
2022/01/28 12:23:12;;;;;;;6.80;2.08;;;;;;;;;;10586959;28;20051;-83
2022/01/28 12:28:18;;;;;;;5.00;2.22;;;;;;;;;;10595040;28;20412;-81
2022/01/28 12:33:24;;;;;;;6.65;2.08;;;;;;;;;;10591021;28;20027;-80
2022/01/28 12:38:31;;;;;;;7.35;2.55;;;;;;;;;;10584969;28;20032;-81
2022/01/28 12:43:32;;;;;;;6.15;2.08;;;;;;;;;;10582755;28;20024;-82
2022/01/28 12:48:34;;;;;;;6.30;1.90;;;;;;;;;;10580240;28;20035;-82
2022/01/28 12:53:39;;;;;;;6.57;1.90;;;;;;;;;;10581065;28;20031;-83
2022/01/28 12:58:47;;;;;;;8.85;2.58;;;;;;;;;;10600863;28;20075;-81
2022/01/28 13:03:56;;;;;;;5.90;2.05;;;;;;;;;;10581270;28;20045;-82
2022/01/28 13:08:57;;;;;;;7.60;2.50;;;;;;;;;;10587826;28;20035;-82
2022/01/28 13:13:58;;;;;;;6.97;2.33;;;;;;;;;;10588817;28;20024;-81
2022/01/28 13:18:59;;;;;;;;;;;;;;;;;;10582330;28;20031;-82
2022/01/28 13:24:07;;;;;;;6.68;2.35;;;;;;;;;;10599077;28;19904;-81
2022/01/28 13:29:10;;;;;;;7.30;2.22;;;;;;;;;;10581742;28;20053;-82
2022/01/28 13:34:12;;;;;;;7.97;1.92;;;;;;;;;;10599933;28;20083;-81
2022/01/28 13:39:37;;;;;;;5.30;1.95;;;;;;;;;;10580898;28;20019;-80
2022/01/28 13:44:43;;;;;;;6.30;2.00;;;;;;;;;;10597462;28;20456;-81
2022/01/28 13:49:44;;;;;;;6.75;1.85;;;;;;;;;;10579613;28;20031;-81
2022/01/28 13:54:45;;;;;;;8.90;2.42;;;;;;;;;;10597862;28;20489;-81
2022/01/28 13:59:47;;;;;;;7.88;2.20;;;;;;;;;;10579173;28;20020;-81
2022/01/28 14:04:48;;;;;;;5.97;2.13;;;;;;;;;;10579409;28;20030;-81
2022/01/28 14:09:55;;;;;;;7.40;1.92;;;;;;;;;;10580648;28;20055;-80
2022/01/28 14:15:09;;;;;;;6.57;1.80;;;;;;;;;;10578071;28;20064;-81
2022/01/28 14:20:10;;;;;;;5.55;2.00;;;;;;;;;;10577994;28;20032;-80
2022/01/28 14:25:11;;;;;;;5.43;1.83;;;;;;;;;;10596843;28;20051;-81
2022/01/28 14:30:22;;;;;;;6.38;2.10;;;;;;;;;;10578993;28;20028;-81
2022/01/28 14:35:23;;;;;;;;;;;;;;;;;;10576177;28;20054;-81
2022/01/28 14:40:31;;;;;;;5.07;1.80;;;;;;;;;;10575380;28;19903;-81
2022/01/28 14:45:32;;;;;;;7.32;2.28;;;;;;;;;;10578553;28;20036;-81
2022/01/28 14:50:35;;;;;;;6.43;1.90;;;;;;;;;;10597325;28;20024;-81
2022/01/28 14:55:43;;;;;;;9.82;1.88;;;;;;;;;;10574105;28;20020;-84
2022/01/28 15:00:47;;;;;;;6.00;2.08;;;;;;;;;;10573063;28;20015;-82
2022/01/28 15:05:48;;;;;;;9.02;2.85;;;;;;;;;;10576484;28;20019;-81
2022/01/28 15:10:49;;;;;;;5.22;2.20;;;;;;;;;;10586330;28;20023;-81
2022/01/28 15:15:53;;;;;;;6.43;1.70;;;;;;;;;;10605179;28;20035;-82
2022/01/28 15:20:55;;;;;;;5.60;2.00;;;;;;;;;;10658751;22;20042;-82
2022/01/28 15:26:07;;;;;;;4.35;1.80;;;;;;;;;;10659080;27;20031;-83
2022/01/28 15:36:28;;;;;;;5.63;1.70;;;;;;;;;;10605231;28;20047;-83
2022/01/28 15:41:29;;;;;;;5.57;1.85;;;;;;;;;;10587305;28;20389;-83
2022/01/28 15:46:30;;;;;;;7.28;3.20;;;;;;;;;;10587363;28;20023;-82
2022/01/28 15:51:31;;;;;;;5.95;2.03;;;;;;;;;;10602163;28;20377;-82
2022/01/28 15:56:32;;;;;;;3.30;1.50;;;;;;;;;;10601348;28;20122;-82
2022/01/28 16:01:33;;;;;;;5.50;2.17;;;;;;;;;;10602549;28;20050;-81
2022/01/28 16:06:37;;;;;;;5.32;2.30;;;;;;;;;;10602944;28;20051;-82
2022/01/28 16:11:49;;;;;;;5.30;2.20;;;;;;;;;;10582000;28;20078;-82
2022/01/28 16:17:26;;;;;;;4.15;1.88;;;;;;;;;;10601547;28;20024;-82
2022/01/28 16:22:27;;;;;;;4.70;1.83;;;;;;;;;;10599148;28;20073;-83
2022/01/28 16:27:28;;;;;;;5.10;1.67;;;;;;;;;;10599865;28;20045;-82
2022/01/28 16:32:29;;;;;;;3.92;1.83;;;;;;;;;;10600738;28;20047;-83
2022/01/28 16:37:31;;;;;;;4.82;1.80;;;;;;;;;;10583942;28;20477;-83
2022/01/28 16:42:38;;;;;;;4.38;1.88;;;;;;;;;;10585603;28;20052;-82
2022/01/28 16:47:39;;;;;;;3.83;1.60;;;;;;;;;;10601212;28;20026;-85
2022/01/28 16:52:40;;;;;;;5.50;2.67;;;;;;;;;;10600055;28;20019;-82
2022/01/28 16:57:41;;;;;;;4.80;1.63;;;;;;;;;;10600186;28;20039;-82
2022/01/28 17:02:44;;;;;;;4.68;2.20;;;;;;;;;;10602791;28;20035;-81
2022/01/28 17:07:45;;;;;;;5.70;1.75;;;;;;;;;;10596967;28;20073;-79
2022/01/28 17:12:48;;;;;;;5.57;2.30;;;;;;;;;;10593654;28;20049;-82
2022/01/28 17:17:49;;;;;;;6.40;2.42;;;;;;;;;;10602032;28;20023;-82
2022/01/28 17:22:51;;;;;;;9.77;3.75;;;;;;;;;;10622763;28;20465;-82
2022/01/28 17:27:52;;;;;;;6.20;3.03;;;;;;;;;;10612638;28;20019;-80
2022/01/28 17:32:56;;;;;;;4.20;1.70;;;;;;;;;;10606558;28;20035;-82
2022/01/28 17:37:57;;;;;;;7.35;3.25;;;;;;;;;;10601847;28;20034;-84
2022/01/28 17:42:58;;;;;;;11.25;4.63;;;;;;;;;;10586409;28;20119;-86
2022/01/28 17:48:00;;;;;;;9.60;4.60;;;;;;;;;;10580658;28;20500;-86
2022/01/28 17:53:01;;;;;;;10.00;4.30;;;;;;;;;;10616726;28;20032;-85
2022/01/28 17:58:04;;;;;;;7.25;4.45;;;;;;;;;;10610815;28;20027;-86
2022/01/28 18:03:05;;;;;;;8.68;4.13;;;;;;;;;;10607082;28;20027;-87
2022/01/28 18:08:06;;;;;;;9.80;5.30;;;;;;;;;;10608710;28;20039;-86
2022/01/28 18:13:08;;;;;;;17.95;9.30;;;;;;;;;;10623891;28;20027;-86
2022/01/28 18:18:09;;;;;;;10.40;6.10;;;;;;;;;;10617644;28;20074;-87
2022/01/28 18:23:09;;;;;;;;;;;;;;;;;;10614608;28;20027;-86
2022/01/28 18:28:10;;;;;;;8.27;5.80;;;;;;;;;;10613862;28;20006;-87
2022/01/28 18:33:11;;;;;;;14.98;9.60;;;;;;;;;;10609767;28;20027;-87
2022/01/28 18:38:12;;;;;;;;;;;;;;;;;;10608161;28;20028;-87
2022/01/28 18:43:37;;;;;;;19.23;12.70;;;;;;;;;;10620958;28;19908;-87
2022/01/28 18:49:11;;;;;;;18.42;12.75;;;;;;;;;;10622257;28;20073;-87
2022/01/28 18:54:46;;;;;;;15.60;10.57;;;;;;;;;;10624758;28;20481;-86
2022/01/28 21:32:52;;;;;;;20.55;13.23;;;;;;;;;;10550464;28;20032;-86
